Airport View

Enter AWOS ICAO identifier for current METAR.

ex. KFNL

KPNT 100215Z AUTO 15006KT 10SM CLR 28/22 A2978 RMK AO2 T02800218

10 Jul 2020 02:29

Frequency: 119.675

Phone: 815-844-0923

Other Area AWOS: KBMI - KC09 - KC75 - KVYS

TAF KBMI 092320Z 1000/1024 19013KT P6SM SCT045 FM100300 22010KT P6SM VCTS BKN035CB FM100500 25010KT P6SM BKN040 FM101000 28015KT P6SM SCT250 FM101700 30015G25KT P6SM SCT045